TAF KHLG
KHLG 090524Z 0906/1006 00000KT P6SM SCT030 SCT250 TEMPO 0906/0908 OVC030 FM092100 12006KT P6SM BKN250 FM100200 17005KT P6SM BKN090 WS020/20040KT=
METAR KHLG
WC KHLG
WS KHLG
WV KHLG